Terminal Aerodrome Forecast
Issued by NWS Buffalo, NY

Home | Current Version | Previous Version | Text Only | Print | Product List | Glossary On
Versions: 1 2 3 4 5 6 7 8 9 10 11 12 13 14 15 16 17 18 19 20 21 22 23 24
280
FTUS41 KBUF 092104 AAA
TAFBUF
TAF AMD
KBUF 092104Z 0921/1018 29009KT P6SM BKN050
     FM100700 27004KT P6SM -SN BKN040
     FM100900 26004KT 5SM -SN BKN035
     FM101200 26009KT P6SM BKN035
     FM101700 26011G17KT P6SM BKN130=

USA.gov is the U.S. government's official web portal to all federal, state and local government web resources and services.